createdAt,value
2017-07-06T00:00:54.550Z,74.54
2017-07-06T00:03:25.007Z,75.04
2017-07-06T00:05:54.473Z,74.69
2017-07-06T00:08:23.898Z,74.95
2017-07-06T00:10:53.363Z,75.06
2017-07-06T00:13:22.814Z,75.47
2017-07-06T00:15:52.278Z,75.42
2017-07-06T00:18:21.757Z,75.64
2017-07-06T00:20:51.206Z,75.60
2017-07-06T00:23:20.664Z,75.89
2017-07-06T00:25:50.101Z,75.60
2017-07-06T00:28:19.554Z,75.84
2017-07-06T00:30:49.027Z,75.95
2017-07-06T00:33:18.464Z,75.40
2017-07-06T00:35:47.922Z,75.30
2017-07-06T00:38:17.370Z,75.73
2017-07-06T00:40:46.822Z,76.43
2017-07-06T00:43:16.290Z,76.24
2017-07-06T00:45:45.730Z,76.68
2017-07-06T00:48:15.171Z,75.81
2017-07-06T00:50:44.628Z,76.53
2017-07-06T00:53:14.075Z,76.28
2017-07-06T00:55:43.547Z,75.83
2017-07-06T00:58:12.675Z,75.80
2017-07-06T01:00:42.126Z,76.31
2017-07-06T01:03:11.574Z,76.79
2017-07-06T01:05:41.022Z,76.64
2017-07-06T01:08:10.480Z,75.99
2017-07-06T01:10:39.922Z,76.34
2017-07-06T01:13:09.374Z,76.35
2017-07-06T01:15:38.831Z,76.19
2017-07-06T01:18:08.273Z,75.80
2017-07-06T01:20:37.713Z,75.49
2017-07-06T01:23:07.160Z,75.26
2017-07-06T01:25:36.287Z,75.78
2017-07-06T01:28:05.742Z,75.53
2017-07-06T01:30:35.193Z,74.67
2017-07-06T01:33:04.642Z,73.10
2017-07-06T01:35:34.108Z,71.28
2017-07-06T01:38:03.567Z,70.82
2017-07-06T01:40:33.022Z,70.56
2017-07-06T01:43:02.483Z,70.42
2017-07-06T01:45:31.926Z,70.65
2017-07-06T01:48:02.104Z,70.67
2017-07-06T01:50:31.543Z,70.84
2017-07-06T01:53:00.993Z,70.56
2017-07-06T01:55:30.094Z,70.34
2017-07-06T01:57:59.198Z,70.29
2017-07-06T02:00:28.654Z,70.67
2017-07-06T02:02:58.106Z,70.89
2017-07-06T02:05:27.548Z,71.45
2017-07-06T02:07:57.006Z,72.06
2017-07-06T02:10:26.469Z,72.27
2017-07-06T02:12:55.916Z,72.46
2017-07-06T02:15:25.540Z,72.87
2017-07-06T02:17:54.971Z,73.10
2017-07-06T02:20:24.476Z,73.50
2017-07-06T02:22:54.164Z,73.66
2017-07-06T02:25:23.620Z,73.85
2017-07-06T02:27:53.073Z,73.76
2017-07-06T02:30:22.563Z,73.99
2017-07-06T02:32:52.003Z,73.90
2017-07-06T02:35:21.494Z,74.07
2017-07-06T02:37:50.949Z,74.36
2017-07-06T02:40:20.493Z,74.37
2017-07-06T02:42:49.925Z,74.22
2017-07-06T02:45:19.466Z,74.50
2017-07-06T02:47:48.897Z,74.50
2017-07-06T02:50:18.381Z,74.67
2017-07-06T02:52:47.827Z,74.66
2017-07-06T02:55:17.373Z,74.56
2017-07-06T02:57:46.802Z,74.82
2017-07-06T03:00:16.296Z,74.63
2017-07-06T03:02:45.590Z,74.45
2017-07-06T03:05:15.062Z,74.47
2017-07-06T03:07:44.345Z,74.44
2017-07-06T03:10:13.826Z,74.18
2017-07-06T03:12:43.287Z,74.42
2017-07-06T03:15:12.777Z,74.32
2017-07-06T03:17:42.213Z,74.31
2017-07-06T03:20:11.727Z,74.21
2017-07-06T03:22:41.197Z,73.79
2017-07-06T03:25:10.682Z,74.09
2017-07-06T03:27:40.136Z,73.82
2017-07-06T03:30:09.136Z,73.84
2017-07-06T03:32:38.582Z,73.82
2017-07-06T03:35:08.134Z,73.55
2017-07-06T03:37:37.794Z,73.87
2017-07-06T03:40:07.292Z,73.88
2017-07-06T03:42:36.738Z,73.66
2017-07-06T03:45:06.166Z,73.18
2017-07-06T03:47:35.630Z,72.65
2017-07-06T03:50:05.106Z,72.52
2017-07-06T03:52:34.548Z,72.44
2017-07-06T03:55:04.052Z,72.08
2017-07-06T03:57:33.321Z,71.52
2017-07-06T04:00:03.026Z,71.48
2017-07-06T04:02:32.273Z,71.69
2017-07-06T04:05:01.781Z,71.79
2017-07-06T04:07:31.367Z,71.47
2017-07-06T04:10:00.798Z,71.37
2017-07-06T04:12:30.386Z,71.06
2017-07-06T04:14:59.840Z,70.81
2017-07-06T04:17:30.271Z,70.60
2017-07-06T04:19:59.560Z,70.29
2017-07-06T04:22:29.030Z,69.99
2017-07-06T04:24:58.481Z,69.66
2017-07-06T04:27:27.936Z,69.53
2017-07-06T04:29:57.386Z,69.02
2017-07-06T04:32:26.822Z,69.19
2017-07-06T04:34:56.281Z,69.37
2017-07-06T04:37:25.738Z,68.28
2017-07-06T04:39:55.235Z,67.90
2017-07-06T04:42:24.678Z,67.81
2017-07-06T04:44:54.305Z,67.70
2017-07-06T04:47:23.789Z,67.32
2017-07-06T04:49:53.254Z,66.48
2017-07-06T04:52:22.540Z,66.47
2017-07-06T04:54:51.977Z,66.50
2017-07-06T04:57:21.254Z,65.84
2017-07-06T04:59:51.473Z,65.47
2017-07-06T05:02:20.964Z,66.06
2017-07-06T05:04:50.818Z,65.48
2017-07-06T05:07:20.273Z,65.06
2017-07-06T05:09:49.719Z,64.47
2017-07-06T05:12:19.190Z,64.08
2017-07-06T05:14:48.642Z,63.62
2017-07-06T05:17:18.094Z,63.24
2017-07-06T05:19:47.585Z,62.59
2017-07-06T05:22:17.028Z,62.35
2017-07-06T05:24:46.485Z,62.55
2017-07-06T05:27:15.769Z,62.41
2017-07-06T05:29:45.219Z,62.38
2017-07-06T05:32:14.666Z,62.29
2017-07-06T05:34:44.234Z,61.92
2017-07-06T05:37:13.744Z,61.37
2017-07-06T05:39:43.201Z,61.28
2017-07-06T05:42:12.662Z,61.06
2017-07-06T05:44:42.115Z,60.44
2017-07-06T05:47:11.574Z,59.93
2017-07-06T05:49:40.831Z,59.77
2017-07-06T05:52:10.268Z,59.46
2017-07-06T05:54:39.729Z,59.47
2017-07-06T05:57:09.175Z,58.99
2017-07-06T05:59:38.628Z,58.58
2017-07-06T06:02:08.078Z,58.77
2017-07-06T06:04:37.515Z,58.59
2017-07-06T06:07:06.974Z,57.82
2017-07-06T06:09:36.427Z,57.72
2017-07-06T06:12:05.874Z,57.05
2017-07-06T06:14:35.328Z,57.06
2017-07-06T06:17:04.797Z,57.20
2017-07-06T06:19:34.054Z,57.56
2017-07-06T06:22:05.181Z,56.79
2017-07-06T06:24:34.281Z,56.71
2017-07-06T06:27:03.721Z,56.43
2017-07-06T06:29:33.169Z,56.35
2017-07-06T06:32:02.612Z,56.05
2017-07-06T06:34:32.053Z,56.16
2017-07-06T06:37:01.509Z,55.65
2017-07-06T06:39:30.967Z,55.68
2017-07-06T06:42:00.409Z,56.38
2017-07-06T06:44:29.862Z,55.82
2017-07-06T06:46:59.306Z,54.95
2017-07-06T06:49:28.576Z,54.88
2017-07-06T06:51:57.690Z,54.97
2017-07-06T06:54:27.146Z,55.01
2017-07-06T06:56:56.604Z,55.17
2017-07-06T06:59:26.043Z,55.22
2017-07-06T07:01:55.513Z,54.60
2017-07-06T07:04:24.954Z,53.16
2017-07-06T07:06:54.415Z,52.72
2017-07-06T07:09:23.874Z,52.78
2017-07-06T07:11:53.321Z,52.37
2017-07-06T07:14:22.868Z,52.24
2017-07-06T07:16:52.359Z,52.38
2017-07-06T07:19:21.818Z,52.78
2017-07-06T07:21:51.297Z,52.90
2017-07-06T07:24:20.745Z,52.60
2017-07-06T07:26:50.183Z,51.74
2017-07-06T07:29:19.627Z,51.96
2017-07-06T07:31:49.074Z,52.14
2017-07-06T07:34:18.523Z,51.53
2017-07-06T07:36:47.969Z,50.84
2017-07-06T07:39:17.409Z,50.56
2017-07-06T07:41:46.853Z,50.96
2017-07-06T07:44:16.315Z,51.33
2017-07-06T07:46:45.773Z,50.41
2017-07-06T07:49:15.219Z,51.57
2017-07-06T07:51:44.675Z,50.80
2017-07-06T07:54:14.126Z,50.63
2017-07-06T07:56:43.575Z,50.88
2017-07-06T07:59:13.041Z,50.18
2017-07-06T08:01:42.486Z,49.40
2017-07-06T08:04:11.919Z,49.82
2017-07-06T08:06:41.372Z,50.98
2017-07-06T08:09:10.812Z,50.36
2017-07-06T08:11:40.331Z,50.47
2017-07-06T08:14:09.796Z,50.46
2017-07-06T08:16:39.237Z,50.25
2017-07-06T08:19:08.677Z,49.03
2017-07-06T08:21:38.117Z,49.30
2017-07-06T08:24:07.585Z,49.83
2017-07-06T08:26:37.042Z,48.41
2017-07-06T08:29:06.485Z,48.79
2017-07-06T08:31:35.930Z,48.85
2017-07-06T08:34:05.395Z,48.23
2017-07-06T08:36:34.849Z,47.54
2017-07-06T08:39:03.529Z,47.14
2017-07-06T08:41:32.965Z,44.86
2017-07-06T08:44:02.423Z,44.47
2017-07-06T08:46:31.879Z,43.41
2017-07-06T08:49:01.321Z,43.13
2017-07-06T08:51:30.770Z,43.31
2017-07-06T08:54:00.225Z,43.38
2017-07-06T08:56:29.674Z,44.84
2017-07-06T08:58:59.124Z,44.01
2017-07-06T09:01:28.578Z,42.34
2017-07-06T09:03:58.018Z,42.20
2017-07-06T09:06:27.474Z,42.57
2017-07-06T09:08:56.918Z,41.08
2017-07-06T09:11:26.357Z,40.96
2017-07-06T09:13:55.827Z,41.12
2017-07-06T09:16:25.262Z,40.86
2017-07-06T09:18:55.980Z,39.93
2017-07-06T09:21:25.418Z,39.90
2017-07-06T09:23:54.869Z,40.19
2017-07-06T09:26:24.330Z,40.56
2017-07-06T09:28:53.774Z,40.82
2017-07-06T09:31:23.233Z,40.96
2017-07-06T09:33:52.704Z,40.59
2017-07-06T09:36:22.152Z,38.89
2017-07-06T09:38:51.595Z,39.70
2017-07-06T09:41:21.058Z,37.90
2017-07-06T09:43:50.507Z,39.73
2017-07-06T09:46:20.006Z,39.28
2017-07-06T09:48:49.463Z,38.99
2017-07-06T09:51:18.918Z,39.09
2017-07-06T09:53:48.369Z,38.04
2017-07-06T09:56:17.810Z,38.06
2017-07-06T09:58:47.102Z,36.92
2017-07-06T10:01:16.542Z,37.30
2017-07-06T10:03:46.010Z,37.21
2017-07-06T10:06:15.465Z,37.23
2017-07-06T10:08:44.923Z,35.94
2017-07-06T10:11:14.383Z,36.03
2017-07-06T10:13:43.853Z,36.81
2017-07-06T10:16:13.550Z,35.82
2017-07-06T10:18:43.015Z,35.76
2017-07-06T10:21:12.450Z,34.81
2017-07-06T10:23:41.905Z,34.92
2017-07-06T10:26:11.362Z,32.92
2017-07-06T10:28:40.837Z,33.36
2017-07-06T10:31:10.360Z,32.81
2017-07-06T10:33:40.053Z,33.90
2017-07-06T10:36:09.501Z,33.33
2017-07-06T10:38:38.976Z,32.91
2017-07-06T10:41:08.234Z,32.09
2017-07-06T10:43:37.686Z,33.00
2017-07-06T10:46:07.138Z,32.99
2017-07-06T10:48:36.580Z,33.25
2017-07-06T10:51:06.012Z,31.76
2017-07-06T10:53:35.457Z,32.10
2017-07-06T10:56:04.917Z,32.16
2017-07-06T10:58:34.341Z,32.06
2017-07-06T11:01:03.798Z,31.71
2017-07-06T11:03:33.241Z,31.36
2017-07-06T11:06:03.565Z,31.70
2017-07-06T11:08:33.040Z,30.37
2017-07-06T11:11:02.473Z,31.57
2017-07-06T11:13:31.915Z,30.06
2017-07-06T11:16:01.364Z,31.17
2017-07-06T11:18:30.816Z,30.80
2017-07-06T11:21:00.254Z,31.28
2017-07-06T11:23:29.706Z,31.50
2017-07-06T11:25:59.157Z,31.31
2017-07-06T11:28:28.609Z,31.77
2017-07-06T11:30:58.064Z,32.25
2017-07-06T11:33:27.518Z,31.69
2017-07-06T11:35:56.963Z,31.41
2017-07-06T11:38:26.406Z,31.14
2017-07-06T11:40:55.849Z,31.05
2017-07-06T11:43:25.290Z,31.72
2017-07-06T11:45:54.744Z,30.65
2017-07-06T11:48:24.020Z,30.58
2017-07-06T11:50:53.466Z,30.45
2017-07-06T11:53:22.936Z,30.31
2017-07-06T11:55:52.375Z,31.06
2017-07-06T11:58:21.824Z,31.00
2017-07-06T12:00:51.276Z,30.95
2017-07-06T12:03:20.722Z,30.55
2017-07-06T12:05:50.183Z,28.73
2017-07-06T12:08:19.493Z,28.99
2017-07-06T12:10:48.940Z,29.29
2017-07-06T12:13:18.121Z,29.06
2017-07-06T12:15:47.568Z,29.24
2017-07-06T12:18:17.037Z,29.08
2017-07-06T12:20:46.313Z,30.04
2017-07-06T12:23:15.757Z,29.22
2017-07-06T12:25:45.217Z,28.66
2017-07-06T12:28:15.383Z,28.64
2017-07-06T12:30:44.944Z,27.81
2017-07-06T12:33:14.385Z,26.45
2017-07-06T12:35:43.849Z,25.91
2017-07-06T12:38:13.295Z,23.81
2017-07-06T12:40:42.893Z,23.09
2017-07-06T12:43:12.365Z,22.83
2017-07-06T12:45:41.902Z,22.57
2017-07-06T12:48:11.336Z,21.85
2017-07-06T12:50:40.788Z,21.67
2017-07-06T12:53:10.282Z,21.21
2017-07-06T12:55:39.725Z,21.01
2017-07-06T12:58:09.180Z,19.44
2017-07-06T13:00:38.451Z,19.90
2017-07-06T13:03:07.905Z,18.93
2017-07-06T13:05:37.377Z,19.49
2017-07-06T13:08:06.845Z,18.67
2017-07-06T13:10:36.542Z,19.07
2017-07-06T13:13:05.993Z,19.51
2017-07-06T13:15:35.429Z,18.64
2017-07-06T13:18:04.891Z,19.65
2017-07-06T13:20:34.333Z,19.46
2017-07-06T13:23:03.610Z,17.99
2017-07-06T13:25:33.053Z,17.67
2017-07-06T13:28:02.513Z,18.71
2017-07-06T13:30:31.963Z,18.30
2017-07-06T13:33:01.403Z,17.22
2017-07-06T13:35:30.856Z,17.06
2017-07-06T13:38:00.302Z,17.99
2017-07-06T13:40:29.394Z,17.38
2017-07-06T13:42:58.846Z,16.96
2017-07-06T13:45:28.316Z,17.20
2017-07-06T13:47:57.561Z,17.85
2017-07-06T13:50:26.826Z,15.33
2017-07-06T13:52:56.277Z,16.10
2017-07-06T13:55:25.358Z,16.00
2017-07-06T13:57:54.259Z,16.32
2017-07-06T14:00:23.710Z,17.37
2017-07-06T14:02:53.156Z,16.67
2017-07-06T14:05:22.601Z,15.70
2017-07-06T14:07:52.051Z,16.31
2017-07-06T14:10:21.502Z,16.86
2017-07-06T14:12:50.959Z,15.98
2017-07-06T14:15:20.390Z,15.18
2017-07-06T14:17:49.842Z,15.58
2017-07-06T14:20:19.298Z,15.31
2017-07-06T14:22:48.854Z,15.38
2017-07-06T14:25:18.298Z,15.17
2017-07-06T14:27:47.769Z,15.03
2017-07-06T14:30:17.227Z,15.93
2017-07-06T14:32:46.679Z,16.33
2017-07-06T14:35:16.135Z,15.93
2017-07-06T14:37:45.827Z,16.34
2017-07-06T14:40:15.262Z,15.43
2017-07-06T14:42:44.736Z,15.26
2017-07-06T14:45:14.179Z,15.52
2017-07-06T14:47:43.636Z,14.25
2017-07-06T14:50:13.094Z,14.35
2017-07-06T14:52:42.553Z,14.90
2017-07-06T14:55:12.005Z,14.43
2017-07-06T14:57:41.477Z,15.38
2017-07-06T15:00:10.936Z,15.74
2017-07-06T15:02:40.402Z,15.32
2017-07-06T15:05:09.849Z,14.98
2017-07-06T15:07:39.318Z,13.87
2017-07-06T15:10:08.901Z,15.00
2017-07-06T15:12:38.990Z,14.39
2017-07-06T15:15:08.442Z,15.88
2017-07-06T15:17:37.889Z,14.39
2017-07-06T15:20:07.377Z,14.19
2017-07-06T15:22:36.840Z,14.26
2017-07-06T15:25:06.281Z,14.07
2017-07-06T15:27:38.038Z,13.87
2017-07-06T15:30:07.465Z,13.01
2017-07-06T15:32:36.922Z,12.95
2017-07-06T15:35:06.384Z,12.94
2017-07-06T15:37:35.818Z,14.06
2017-07-06T15:40:05.205Z,13.43
2017-07-06T15:42:34.648Z,14.21
2017-07-06T15:45:04.096Z,14.55
2017-07-06T15:47:33.534Z,14.87
2017-07-06T15:50:03.006Z,14.66
2017-07-06T15:52:32.458Z,15.47
2017-07-06T15:55:01.927Z,15.63
2017-07-06T15:57:31.383Z,16.60
2017-07-06T16:00:00.650Z,17.48
2017-07-06T16:02:29.911Z,15.90
2017-07-06T16:04:59.369Z,15.75
2017-07-06T16:07:28.830Z,17.73
2017-07-06T16:09:58.279Z,17.26
2017-07-06T16:12:27.754Z,16.16
2017-07-06T16:14:57.248Z,15.31
2017-07-06T16:17:26.699Z,15.45
2017-07-06T16:19:56.153Z,16.11
2017-07-06T16:22:26.250Z,15.33
2017-07-06T16:24:55.713Z,16.34
2017-07-06T16:27:25.203Z,16.03
2017-07-06T16:29:54.815Z,15.47
2017-07-06T16:32:24.250Z,18.58
2017-07-06T16:34:53.701Z,17.98
2017-07-06T16:37:23.140Z,18.14
2017-07-06T16:39:52.458Z,18.49
2017-07-06T16:42:21.912Z,17.82
2017-07-06T16:44:51.383Z,17.60
2017-07-06T16:47:20.804Z,17.50
2017-07-06T16:49:50.285Z,16.89
2017-07-06T16:52:19.541Z,16.09
2017-07-06T16:54:48.992Z,17.25
2017-07-06T16:57:18.450Z,17.53
2017-07-06T16:59:47.933Z,17.10
2017-07-06T17:02:17.382Z,16.95
2017-07-06T17:04:46.869Z,17.12
2017-07-06T17:07:16.326Z,17.71
2017-07-06T17:09:45.781Z,18.68
2017-07-06T17:12:15.248Z,18.77
2017-07-06T17:14:44.738Z,18.77
2017-07-06T17:17:14.181Z,18.66
2017-07-06T17:19:43.641Z,18.87
2017-07-06T17:22:13.091Z,18.81
2017-07-06T17:24:42.525Z,18.29
2017-07-06T17:27:11.977Z,18.65
2017-07-06T17:29:41.433Z,18.54
2017-07-06T17:32:10.919Z,18.97
2017-07-06T17:34:40.373Z,18.54
2017-07-06T17:37:09.855Z,17.66
2017-07-06T17:39:39.306Z,18.09
2017-07-06T17:42:08.795Z,18.65
2017-07-06T17:44:38.300Z,17.88
2017-07-06T17:47:07.732Z,18.79
2017-07-06T17:49:37.307Z,19.12
2017-07-06T17:52:06.758Z,19.62
2017-07-06T17:54:36.228Z,18.76
2017-07-06T17:57:05.653Z,18.01
2017-07-06T17:59:35.098Z,18.66
2017-07-06T18:02:04.594Z,19.12
2017-07-06T18:04:34.051Z,18.88
2017-07-06T18:07:03.486Z,19.17
2017-07-06T18:09:32.974Z,19.66
2017-07-06T18:12:02.429Z,19.32
2017-07-06T18:14:31.987Z,20.57
2017-07-06T18:17:01.535Z,22.00
2017-07-06T18:19:30.985Z,23.98
2017-07-06T18:22:00.440Z,25.63
2017-07-06T18:24:29.664Z,27.24
2017-07-06T18:26:59.120Z,28.53
2017-07-06T18:29:28.598Z,30.10
2017-07-06T18:31:58.041Z,30.08
2017-07-06T18:34:27.506Z,32.06
2017-07-06T18:36:56.971Z,32.95
2017-07-06T18:39:26.448Z,34.54
2017-07-06T18:41:56.035Z,35.55
2017-07-06T18:44:25.466Z,36.35
2017-07-06T18:46:54.943Z,36.73
2017-07-06T18:49:24.993Z,37.47
2017-07-06T18:51:54.455Z,39.05
2017-07-06T18:54:23.906Z,40.25
2017-07-06T18:56:53.387Z,40.66
2017-07-06T18:59:22.828Z,40.63
2017-07-06T19:01:52.283Z,40.82
2017-07-06T19:04:21.735Z,40.60
2017-07-06T19:06:51.187Z,43.39
2017-07-06T19:09:20.626Z,45.55
2017-07-06T19:11:50.110Z,45.81
2017-07-06T19:14:19.588Z,47.12
2017-07-06T19:16:49.027Z,46.38
2017-07-06T19:19:18.491Z,47.71
2017-07-06T19:21:47.968Z,47.61
2017-07-06T19:24:17.422Z,48.60
2017-07-06T19:26:46.938Z,48.54
2017-07-06T19:29:16.359Z,48.70
2017-07-06T19:31:45.811Z,49.99
2017-07-06T19:34:15.285Z,49.59
2017-07-06T19:36:44.724Z,49.94
2017-07-06T19:39:14.176Z,50.66
2017-07-06T19:41:43.621Z,50.11
2017-07-06T19:44:13.103Z,50.20
2017-07-06T19:46:42.546Z,50.92
2017-07-06T19:49:12.006Z,50.48
2017-07-06T19:51:41.483Z,51.21
2017-07-06T19:54:10.929Z,51.79
2017-07-06T19:56:40.394Z,51.91
2017-07-06T19:59:09.836Z,52.31
2017-07-06T20:01:39.286Z,52.11
2017-07-06T20:04:08.886Z,52.44
2017-07-06T20:06:38.338Z,53.31
2017-07-06T20:09:07.787Z,53.68
2017-07-06T20:11:37.261Z,54.02
2017-07-06T20:14:06.719Z,54.49
2017-07-06T20:16:36.185Z,54.39
2017-07-06T20:19:05.641Z,54.69
2017-07-06T20:21:35.097Z,53.80
2017-07-06T20:24:04.550Z,53.86
2017-07-06T20:26:34.001Z,53.83
2017-07-06T20:29:03.461Z,54.16
2017-07-06T20:31:32.918Z,55.10
2017-07-06T20:34:03.159Z,55.02
2017-07-06T20:36:32.601Z,56.26
2017-07-06T20:39:02.037Z,56.38
2017-07-06T20:41:31.395Z,56.33
2017-07-06T20:44:00.846Z,56.45
2017-07-06T20:46:30.325Z,56.00
2017-07-06T20:48:59.779Z,58.01
2017-07-06T20:51:29.227Z,56.78
2017-07-06T20:53:58.682Z,55.26
2017-07-06T20:56:30.354Z,54.10
2017-07-06T20:59:00.679Z,55.40
2017-07-06T21:01:30.494Z,55.13
2017-07-06T21:04:00.408Z,54.90
2017-07-06T21:06:30.439Z,51.86
2017-07-06T21:09:00.752Z,51.12
2017-07-06T21:11:30.513Z,50.12
2017-07-06T21:14:01.506Z,49.33
2017-07-06T21:16:31.417Z,48.13
2017-07-06T21:19:01.438Z,47.76
2017-07-06T21:21:31.350Z,48.13
2017-07-06T21:24:01.264Z,47.70
2017-07-06T21:26:31.081Z,47.54
2017-07-06T21:29:00.557Z,47.28
2017-07-06T21:31:30.061Z,47.25
2017-07-06T21:33:59.512Z,47.04
2017-07-06T21:36:28.957Z,47.70
2017-07-06T21:38:58.410Z,49.02
2017-07-06T21:41:27.858Z,49.46
2017-07-06T21:43:57.305Z,49.81
2017-07-06T21:46:26.838Z,50.31
2017-07-06T21:48:56.264Z,52.08
2017-07-06T21:51:25.698Z,53.73
2017-07-06T21:53:55.259Z,53.15
2017-07-06T21:56:24.726Z,53.76
2017-07-06T21:58:54.177Z,55.01
2017-07-06T22:01:23.633Z,55.89
2017-07-06T22:03:53.098Z,55.86
2017-07-06T22:06:22.551Z,56.51
2017-07-06T22:08:52.012Z,57.07
2017-07-06T22:11:21.457Z,57.65
2017-07-06T22:13:50.896Z,57.84
2017-07-06T22:16:20.360Z,57.87
2017-07-06T22:18:49.798Z,57.86
2017-07-06T22:21:19.254Z,57.88
2017-07-06T22:23:48.722Z,57.67
2017-07-06T22:26:18.157Z,57.87
2017-07-06T22:28:47.614Z,58.98
2017-07-06T22:31:17.078Z,59.24
2017-07-06T22:33:46.342Z,60.48
2017-07-06T22:36:15.797Z,60.67
2017-07-06T22:38:45.233Z,60.70
2017-07-06T22:41:14.713Z,61.16
2017-07-06T22:43:44.168Z,60.85
2017-07-06T22:46:13.661Z,61.23
2017-07-06T22:48:43.135Z,61.85
2017-07-06T22:51:12.679Z,62.29
2017-07-06T22:53:42.150Z,62.70
2017-07-06T22:56:11.610Z,62.34
2017-07-06T22:58:41.050Z,62.36
2017-07-06T23:01:10.525Z,62.25
2017-07-06T23:03:39.971Z,62.14
2017-07-06T23:06:09.435Z,62.32
2017-07-06T23:08:38.894Z,63.06
2017-07-06T23:11:08.337Z,62.89
2017-07-06T23:13:37.784Z,62.73
2017-07-06T23:16:07.225Z,63.04
2017-07-06T23:18:36.684Z,63.72
2017-07-06T23:21:06.154Z,63.49
2017-07-06T23:23:35.446Z,62.87
2017-07-06T23:26:04.913Z,63.42
2017-07-06T23:28:34.354Z,63.75
2017-07-06T23:31:03.844Z,64.09
2017-07-06T23:33:33.302Z,64.03
2017-07-06T23:36:02.569Z,64.10
2017-07-06T23:38:32.043Z,63.82
2017-07-06T23:41:01.481Z,64.19
2017-07-06T23:43:30.943Z,64.48
2017-07-06T23:46:00.396Z,65.09
2017-07-06T23:48:29.858Z,66.08
2017-07-06T23:50:59.313Z,66.47
2017-07-06T23:53:28.757Z,66.60
2017-07-06T23:55:58.214Z,67.36
2017-07-06T23:58:27.656Z,67.24
